Time;durP1;ratioP1;P1;durP2;ratioP2;P2;SDS_P1;SDS_P2;PMS_P1;PMS_P2;Temp;Humidity;BMP_temperature;BMP_pressure;BME280_temperature;BME280_humidity;BME280_pressure;Samples;Min_cycle;Max_cycle;Signal;HPM_P1;HPM_P2
2022/12/10 00:00:39;;;;;;;37.27;23.10;;;2.50;99.90;;;;;;5031994;28;20271;-38
2022/12/10 00:03:05;;;;;;;37.00;22.27;;;2.60;99.90;;;;;;5037559;28;20956;-38
2022/12/10 00:05:34;;;;;;;37.60;23.60;;;2.60;99.90;;;;;;5027176;28;20198;-39
2022/12/10 00:07:59;;;;;;;37.87;23.20;;;2.50;99.90;;;;;;5025617;28;20218;-38
2022/12/10 00:10:25;;;;;;;39.47;24.97;;;2.50;99.90;;;;;;5027353;28;20448;-38
2022/12/10 00:12:50;;;;;;;37.90;23.47;;;2.40;99.90;;;;;;5038744;28;20703;-38
2022/12/10 00:15:16;;;;;;;39.97;23.47;;;2.60;99.90;;;;;;5036063;28;20618;-38
2022/12/10 00:17:42;;;;;;;37.50;22.50;;;2.60;99.90;;;;;;5026822;28;20191;-38
2022/12/10 00:20:09;;;;;;;38.63;24.97;;;2.40;99.90;;;;;;5034421;28;20182;-38
2022/12/10 00:22:35;;;;;;;39.27;23.57;;;2.50;99.90;;;;;;5041657;28;20940;-39
2022/12/10 00:25:01;;;;;;;38.10;23.37;;;2.40;99.90;;;;;;5030365;28;20428;-39
2022/12/10 00:27:26;;;;;;;40.53;24.93;;;2.40;99.90;;;;;;5044606;28;20562;-38
2022/12/10 00:29:52;;;;;;;40.20;24.93;;;2.40;99.90;;;;;;5041637;28;20209;-38
2022/12/10 00:32:17;;;;;;;42.20;24.67;;;2.50;99.90;;;;;;5047699;28;20699;-38
2022/12/10 00:34:43;;;;;;;40.10;25.27;;;2.20;99.90;;;;;;5048947;28;20181;-38
2022/12/10 00:37:09;;;;;;;41.53;23.80;;;2.40;99.90;;;;;;5046420;28;20398;-38
2022/12/10 00:39:34;;;;;;;33.83;22.77;;;2.40;99.90;;;;;;5029694;28;20213;-38
2022/12/10 00:42:00;;;;;;;40.63;23.07;;;2.40;99.90;;;;;;5031076;28;20241;-38
2022/12/10 00:44:25;;;;;;;40.73;24.20;;;2.50;99.90;;;;;;5044679;28;20196;-38
2022/12/10 00:46:51;;;;;;;35.93;24.03;;;2.50;99.90;;;;;;5032651;28;20275;-38
2022/12/10 00:49:17;;;;;;;40.10;25.87;;;2.70;99.90;;;;;;5029701;28;20221;-38
2022/12/10 00:51:42;;;;;;;39.23;24.33;;;2.60;99.90;;;;;;5029920;28;20201;-38
2022/12/10 00:54:08;;;;;;;40.40;24.87;;;2.70;99.90;;;;;;5037948;28;20178;-38
2022/12/10 00:56:34;;;;;;;34.97;23.70;;;2.70;99.90;;;;;;5032708;28;20279;-38
2022/12/10 00:59:01;;;;;;;35.80;23.20;;;2.50;99.90;;;;;;5029383;28;20608;-38
2022/12/10 01:01:33;;;;;;;38.93;24.97;;;2.40;99.90;;;;;;5040210;28;20437;-38
2022/12/10 01:04:07;;;;;;;38.17;24.03;;;2.50;99.90;;;;;;5029439;28;20429;-38
2022/12/10 01:06:36;;;;;;;37.57;23.77;;;2.40;99.90;;;;;;5029293;28;20507;-38
2022/12/10 01:09:06;;;;;;;37.83;23.43;;;2.40;99.90;;;;;;5028515;28;20938;-38
2022/12/10 01:11:35;;;;;;;42.40;24.53;;;2.50;99.90;;;;;;5029525;28;20738;-38
2022/12/10 01:14:01;;;;;;;41.23;24.37;;;2.40;99.90;;;;;;5029262;28;20409;-38
2022/12/10 01:16:27;;;;;;;41.67;23.73;;;2.40;99.90;;;;;;5029659;28;20630;-38
2022/12/10 01:18:54;;;;;;;37.70;23.07;;;2.40;99.90;;;;;;5029214;28;20881;-38
2022/12/10 01:21:20;;;;;;;37.23;22.83;;;2.60;99.90;;;;;;5029731;28;20448;-38
2022/12/10 01:23:49;;;;;;;38.03;24.10;;;2.50;99.90;;;;;;5029123;28;20397;-38
2022/12/10 01:26:26;;;;;;;40.20;24.57;;;2.40;99.90;;;;;;5029233;28;20839;-38
2022/12/10 01:28:53;;;;;;;38.27;23.17;;;2.40;99.90;;;;;;5042133;28;20412;-38
2022/12/10 01:31:24;;;;;;;34.77;22.57;;;2.60;99.90;;;;;;5049080;28;20463;-39
2022/12/10 01:33:50;;;;;;;36.57;23.40;;;2.60;99.90;;;;;;5049045;28;20397;-38
2022/12/10 01:36:22;;;;;;;37.50;24.60;;;2.40;99.90;;;;;;5049357;28;20504;-39
2022/12/10 01:38:49;;;;;;;37.60;24.47;;;2.60;99.90;;;;;;5048351;28;20409;-38
2022/12/10 01:41:18;;;;;;;38.60;24.10;;;2.50;99.90;;;;;;5047830;28;20463;-38
2022/12/10 01:43:52;;;;;;;38.93;25.07;;;2.70;99.90;;;;;;5048982;28;20416;-38
2022/12/10 01:46:19;;;;;;;41.40;24.73;;;2.40;99.90;;;;;;5049344;28;20487;-38
2022/12/10 01:48:45;;;;;;;39.80;23.40;;;2.40;99.90;;;;;;5048520;28;20931;-38
2022/12/10 01:51:13;;;;;;;34.97;22.40;;;2.70;99.90;;;;;;5046312;28;20928;-38
2022/12/10 01:53:38;;;;;;;38.17;22.93;;;2.60;99.90;;;;;;5048494;28;20408;-39
2022/12/10 01:56:04;;;;;;;34.70;21.47;;;2.60;99.90;;;;;;5049032;28;20412;-38
2022/12/10 01:58:30;;;;;;;36.80;22.20;;;2.50;99.90;;;;;;5048272;28;20423;-38
2022/12/10 02:01:06;;;;;;;40.90;23.87;;;2.50;99.90;;;;;;5048743;28;20739;-39
2022/12/10 02:03:55;;;;;;;35.90;21.87;;;2.50;99.90;;;;;;5048891;28;20181;-38
2022/12/10 02:06:42;;;;;;;32.87;21.53;;;2.50;99.90;;;;;;5048181;28;20467;-38
2022/12/10 02:09:21;;;;;;;36.30;22.10;;;2.50;99.90;;;;;;5048272;28;20405;-39
2022/12/10 02:11:58;;;;;;;35.63;22.00;;;2.40;99.90;;;;;;5048632;28;20417;-38
2022/12/10 02:14:53;;;;;;;37.60;22.93;;;2.50;99.90;;;;;;5048070;28;20431;-39
2022/12/10 02:17:42;;;;;;;35.60;23.27;;;2.50;99.90;;;;;;5043585;28;20903;-38
2022/12/10 02:20:14;;;;;;;34.67;22.60;;;2.50;99.90;;;;;;5022408;28;20420;-39
2022/12/10 02:23:03;;;;;;;37.67;20.73;;;2.50;99.90;;;;;;5027970;28;20416;-39
2022/12/10 02:25:37;;;;;;;37.43;21.80;;;2.40;99.90;;;;;;5031034;28;20418;-39
2022/12/10 02:28:17;;;;;;;32.33;20.70;;;2.40;99.90;;;;;;5047910;28;21158;-39
2022/12/10 02:30:45;;;;;;;35.03;22.03;;;2.50;99.90;;;;;;5046491;28;20466;-38
2022/12/10 02:33:13;;;;;;;34.33;21.43;;;2.30;99.90;;;;;;5047548;28;20405;-39
2022/12/10 02:35:40;;;;;;;29.80;20.20;;;2.40;99.90;;;;;;5048193;28;20408;-39
2022/12/10 02:38:19;;;;;;;36.70;21.43;;;2.50;99.90;;;;;;5047815;28;20413;-38
2022/12/10 02:40:48;;;;;;;35.80;20.60;;;2.60;99.90;;;;;;5047677;28;20911;-39
2022/12/10 02:43:15;;;;;;;37.00;22.13;;;2.40;99.90;;;;;;5047512;28;21164;-39
2022/12/10 02:45:42;;;;;;;34.03;21.80;;;2.40;99.90;;;;;;5047736;28;20428;-38
2022/12/10 02:48:09;;;;;;;33.77;21.87;;;2.70;99.90;;;;;;5047703;28;20525;-38
2022/12/10 02:50:35;;;;;;;33.97;21.63;;;2.40;99.90;;;;;;5047537;28;20408;-38
2022/12/10 02:53:01;;;;;;;35.10;21.73;;;2.60;99.90;;;;;;5047162;28;20416;-38
2022/12/10 02:55:27;;;;;;;31.13;20.43;;;2.40;99.90;;;;;;5047979;28;20427;-38
2022/12/10 02:58:35;;;;;;;30.10;18.40;;;2.40;99.90;;;;;;5047399;28;20209;-39
2022/12/10 03:01:19;;;;;;;31.03;18.87;;;2.40;99.90;;;;;;5046095;28;20440;-40
2022/12/10 03:03:55;;;;;;;31.00;19.13;;;2.50;99.90;;;;;;5047241;28;20416;-39
2022/12/10 03:06:26;;;;;;;31.90;21.10;;;2.40;99.90;;;;;;5046105;28;20482;-39
2022/12/10 03:08:57;;;;;;;28.63;17.90;;;2.50;99.90;;;;;;5045663;28;20448;-38
2022/12/10 03:11:23;;;;;;;25.60;17.80;;;2.50;99.90;;;;;;5047689;28;20415;-39
2022/12/10 03:14:15;;;;;;;26.93;18.10;;;2.50;99.90;;;;;;5047039;28;20428;-39
2022/12/10 03:16:46;;;;;;;29.13;18.53;;;2.70;99.90;;;;;;5047034;28;20954;-38
2022/12/10 03:19:15;;;;;;;26.30;17.70;;;2.60;99.90;;;;;;5046972;28;20513;-39
2022/12/10 03:21:42;;;;;;;30.27;19.30;;;2.40;99.90;;;;;;5047937;28;20573;-38
2022/12/10 03:24:10;;;;;;;26.47;18.43;;;2.50;99.90;;;;;;5047213;28;20500;-39
2022/12/10 03:26:37;;;;;;;26.90;18.63;;;2.50;99.90;;;;;;5047517;28;20460;-38
2022/12/10 03:29:10;;;;;;;27.97;18.73;;;2.50;99.90;;;;;;5047420;28;20450;-39
2022/12/10 03:31:37;;;;;;;30.10;18.97;;;2.50;99.90;;;;;;5047388;28;21055;-39
2022/12/10 03:34:05;;;;;;;33.30;18.97;;;2.40;99.90;;;;;;5047090;28;20413;-38
2022/12/10 03:36:31;;;;;;;22.53;15.00;;;2.50;99.90;;;;;;5047226;28;20411;-39
2022/12/10 03:38:58;;;;;;;24.20;16.67;;;2.50;99.90;;;;;;5046947;28;20423;-38
2022/12/10 03:41:23;;;;;;;25.47;16.03;;;2.50;99.90;;;;;;5047594;28;20448;-38
2022/12/10 03:43:54;;;;;;;23.87;15.67;;;2.50;99.90;;;;;;5046719;28;20537;-39
2022/12/10 03:46:20;;;;;;;19.57;14.50;;;2.40;99.90;;;;;;5047053;28;20206;-40
2022/12/10 03:48:46;;;;;;;21.80;15.30;;;2.60;99.90;;;;;;5046907;28;20416;-38
2022/12/10 03:51:12;;;;;;;21.10;15.03;;;2.40;99.90;;;;;;5047143;28;20409;-38
2022/12/10 03:53:37;;;;;;;20.00;14.10;;;2.40;99.90;;;;;;5047002;28;20193;-38
2022/12/10 03:56:03;;;;;;;20.90;14.13;;;2.50;99.90;;;;;;5046947;28;20185;-38
2022/12/10 03:58:29;;;;;;;17.57;13.20;;;2.50;99.90;;;;;;5046566;28;20177;-38
2022/12/10 04:00:54;;;;;;;22.20;14.63;;;2.70;99.90;;;;;;5047339;28;20412;-38
2022/12/10 04:03:20;;;;;;;21.43;14.70;;;2.60;99.90;;;;;;5046922;28;20273;-38
2022/12/10 04:05:46;;;;;;;19.57;14.60;;;2.50;99.90;;;;;;5049668;28;20656;-39
2022/12/10 04:08:11;;;;;;;19.73;15.13;;;2.40;99.90;;;;;;5049155;28;20454;-38
2022/12/10 04:10:37;;;;;;;22.50;14.63;;;2.70;99.90;;;;;;5049384;28;20263;-38
2022/12/10 04:18:32;;;;;;;21.33;15.90;;;2.60;99.90;;;;;;5050360;28;20412;-38
2022/12/10 04:29:11;;;;;;;22.47;16.23;;;2.70;99.90;;;;;;5049974;28;20427;-38
2022/12/10 04:31:37;;;;;;;23.77;15.80;;;2.60;99.90;;;;;;5050319;28;20428;-39
2022/12/10 04:34:02;;;;;;;23.47;15.67;;;2.60;99.90;;;;;;5049937;28;20182;-38
2022/12/10 04:36:28;;;;;;;24.43;15.27;;;2.50;99.90;;;;;;5050441;28;20543;-38
2022/12/10 04:38:53;;;;;;;24.73;16.93;;;2.50;99.90;;;;;;5050196;28;20192;-38
2022/12/10 04:41:19;;;;;;;21.63;14.97;;;2.40;99.90;;;;;;5049886;28;20281;-38
2022/12/10 04:43:45;;;;;;;21.60;15.50;;;2.60;99.90;;;;;;5048703;28;20189;-38
2022/12/10 04:46:11;;;;;;;24.50;15.13;;;2.50;99.90;;;;;;5048860;28;20190;-39
2022/12/10 04:48:37;;;;;;;27.40;16.40;;;2.70;99.90;;;;;;5048406;28;20236;-38
2022/12/10 04:51:03;;;;;;;21.80;15.83;;;2.60;99.90;;;;;;5050080;28;20416;-38
2022/12/10 04:53:28;;;;;;;23.90;16.50;;;2.80;99.90;;;;;;5049986;28;20911;-38
2022/12/10 04:55:54;;;;;;;22.07;14.60;;;2.70;99.90;;;;;;5048709;28;20464;-38
2022/12/10 04:58:19;;;;;;;21.63;15.50;;;2.60;99.90;;;;;;5049914;28;20178;-38
2022/12/10 05:00:45;;;;;;;21.43;15.67;;;2.60;99.90;;;;;;5049843;28;20675;-38
2022/12/10 05:03:11;;;;;;;20.90;15.17;;;2.50;99.90;;;;;;5049369;28;20209;-38
2022/12/10 05:05:36;;;;;;;22.10;14.07;;;2.40;99.90;;;;;;5049827;28;20285;-38
2022/12/10 05:08:02;;;;;;;19.73;14.10;;;2.60;99.90;;;;;;5048467;28;20218;-38
2022/12/10 05:10:28;;;;;;;21.20;13.73;;;2.70;99.90;;;;;;5049810;28;20256;-38
2022/12/10 05:12:54;;;;;;;22.33;14.67;;;2.40;99.90;;;;;;5049335;28;20424;-38
2022/12/10 05:15:19;;;;;;;21.67;14.77;;;2.80;99.90;;;;;;5049556;28;20590;-38
2022/12/10 05:17:45;;;;;;;19.57;13.33;;;2.50;99.90;;;;;;5049570;28;20489;-38
2022/12/10 05:20:11;;;;;;;22.13;15.13;;;2.70;99.90;;;;;;5049501;28;20186;-38
2022/12/10 05:25:20;;;;;;;20.97;15.00;;;2.50;99.90;;;;;;5049625;28;20186;-38
2022/12/10 05:27:46;;;;;;;23.40;14.63;;;2.50;99.90;;;;;;5049153;28;20518;-38
2022/12/10 05:30:12;;;;;;;22.23;15.70;;;2.50;99.90;;;;;;5048829;28;20186;-38
2022/12/10 05:32:38;;;;;;;21.33;14.70;;;2.50;99.90;;;;;;5049459;28;20259;-38
2022/12/10 05:35:04;;;;;;;21.43;14.23;;;2.60;99.90;;;;;;5049473;28;20326;-39
2022/12/10 05:37:30;;;;;;;18.63;13.27;;;2.60;99.90;;;;;;5049263;28;20190;-39
2022/12/10 05:39:56;;;;;;;18.93;13.07;;;2.40;99.90;;;;;;5047522;28;20439;-38
2022/12/10 05:42:21;;;;;;;18.50;13.00;;;2.70;99.90;;;;;;5049218;28;20198;-38
2022/12/10 05:44:47;;;;;;;18.37;13.77;;;2.50;99.90;;;;;;5048613;28;20186;-38
2022/12/10 05:47:12;;;;;;;21.20;13.13;;;2.60;99.90;;;;;;5049388;28;20221;-38
2022/12/10 05:49:38;;;;;;;20.67;13.70;;;2.50;99.90;;;;;;5048702;28;20189;-38
2022/12/10 05:52:04;;;;;;;19.73;13.47;;;2.60;99.90;;;;;;5049024;28;20668;-38
2022/12/10 05:54:29;;;;;;;19.93;13.50;;;2.40;99.90;;;;;;5048600;28;20186;-38
2022/12/10 05:56:55;;;;;;;20.83;13.83;;;2.60;99.90;;;;;;5049096;28;20766;-38
2022/12/10 05:59:21;;;;;;;22.03;14.80;;;2.40;99.90;;;;;;5048484;28;20432;-38
2022/12/10 06:01:47;;;;;;;17.00;13.10;;;2.40;99.90;;;;;;5049285;28;21016;-38
2022/12/10 06:04:12;;;;;;;19.07;14.17;;;2.60;99.90;;;;;;5047042;28;20200;-38
2022/12/10 06:06:39;;;;;;;20.00;12.90;;;2.40;99.90;;;;;;5047777;28;20225;-38
2022/12/10 06:09:07;;;;;;;17.43;12.60;;;2.50;99.90;;;;;;5048076;28;20432;-38
2022/12/10 06:11:33;;;;;;;16.80;12.80;;;2.50;99.90;;;;;;5048535;28;20418;-38
2022/12/10 06:13:59;;;;;;;21.30;12.60;;;2.30;99.90;;;;;;5048343;28;20448;-38
2022/12/10 06:16:26;;;;;;;19.03;12.23;;;2.20;99.90;;;;;;5048607;28;20942;-38
2022/12/10 06:18:52;;;;;;;22.03;14.77;;;2.30;99.90;;;;;;5048123;28;20416;-38
2022/12/10 06:21:19;;;;;;;17.87;12.70;;;2.20;99.90;;;;;;5048467;28;20522;-38
2022/12/10 06:23:46;;;;;;;18.70;11.97;;;2.40;99.90;;;;;;5048219;28;20789;-38
2022/12/10 06:26:17;;;;;;;19.27;12.90;;;2.30;99.90;;;;;;5047949;28;20420;-38
2022/12/10 06:28:47;;;;;;;18.43;11.73;;;2.10;99.90;;;;;;5047640;28;20451;-38
2022/12/10 06:31:14;;;;;;;19.53;12.47;;;2.20;99.90;;;;;;5048353;28;20398;-38
2022/12/10 06:33:39;;;;;;;19.60;12.47;;;2.00;99.90;;;;;;5048142;28;20480;-38
2022/12/10 06:36:07;;;;;;;17.47;13.10;;;2.10;99.90;;;;;;5047025;28;20442;-39
2022/12/10 06:38:34;;;;;;;20.23;13.93;;;2.00;99.90;;;;;;5046618;28;20426;-38
2022/12/10 06:41:03;;;;;;;22.07;14.20;;;2.10;99.90;;;;;;5048135;28;20416;-38
2022/12/10 06:43:29;;;;;;;20.17;14.30;;;2.00;99.90;;;;;;5047954;28;20420;-38
2022/12/10 06:45:55;;;;;;;21.20;14.70;;;1.90;99.90;;;;;;5048255;28;20475;-38
2022/12/10 06:48:20;;;;;;;19.37;13.13;;;1.80;99.90;;;;;;5047885;28;20856;-38
2022/12/10 06:50:46;;;;;;;19.43;13.23;;;1.80;99.90;;;;;;5045168;28;20255;-38
2022/12/10 06:53:11;;;;;;;21.50;13.43;;;1.70;99.90;;;;;;5045940;28;20194;-38
2022/12/10 06:55:38;;;;;;;17.83;12.03;;;1.80;99.90;;;;;;5047863;28;20189;-39
2022/12/10 06:58:04;;;;;;;18.53;12.90;;;1.60;99.90;;;;;;5047684;28;20182;-39
2022/12/10 07:00:30;;;;;;;21.73;13.80;;;1.80;99.90;;;;;;5047327;28;20432;-39
2022/12/10 07:02:55;;;;;;;17.33;12.63;;;1.70;99.90;;;;;;5047276;28;20473;-39
2022/12/10 07:05:21;;;;;;;20.93;14.10;;;1.60;99.90;;;;;;5047604;28;20278;-38
2022/12/10 07:07:46;;;;;;;16.57;12.20;;;1.70;99.90;;;;;;5046469;28;20205;-38
2022/12/10 07:10:12;;;;;;;16.60;11.50;;;1.70;99.90;;;;;;5047129;28;20242;-38
2022/12/10 07:12:38;;;;;;;17.57;13.00;;;1.70;99.90;;;;;;5047795;28;20841;-38
2022/12/10 07:15:04;;;;;;;21.07;14.57;;;1.50;99.90;;;;;;5047688;28;20186;-38
2022/12/10 07:17:29;;;;;;;22.67;14.77;;;1.70;99.90;;;;;;5048110;28;20196;-39
2022/12/10 07:19:55;;;;;;;18.17;12.20;;;1.50;99.90;;;;;;5045975;28;20412;-38
2022/12/10 07:22:21;;;;;;;17.20;12.83;;;1.60;99.90;;;;;;5047490;28;20181;-38
2022/12/10 07:24:48;;;;;;;20.67;13.00;;;1.60;99.90;;;;;;5046947;28;20186;-39
2022/12/10 07:27:14;;;;;;;18.27;13.70;;;1.60;99.90;;;;;;5038655;28;20202;-38
2022/12/10 07:29:40;;;;;;;19.50;12.90;;;1.30;99.90;;;;;;5047146;28;20431;-38
2022/12/10 07:32:05;;;;;;;21.07;12.23;;;1.40;99.90;;;;;;5047604;28;20239;-38
2022/12/10 07:34:31;;;;;;;17.00;11.87;;;1.50;99.90;;;;;;5047367;28;20695;-38
2022/12/10 07:36:56;;;;;;;17.90;12.53;;;1.30;99.90;;;;;;5047458;28;20182;-39
2022/12/10 07:39:22;;;;;;;16.50;11.83;;;1.30;99.90;;;;;;5047391;28;20562;-38
2022/12/10 07:41:58;;;;;;;17.93;12.43;;;1.60;99.90;;;;;;5049030;28;20427;-38
2022/12/10 07:44:25;;;;;;;22.17;13.33;;;1.30;99.90;;;;;;5047303;28;20204;-38
2022/12/10 07:46:52;;;;;;;18.57;13.83;;;1.30;99.90;;;;;;5031499;28;20431;-39
2022/12/10 07:49:18;;;;;;;20.80;14.57;;;1.50;99.90;;;;;;5031078;28;20562;-38
2022/12/10 07:51:51;;;;;;;20.63;13.30;;;1.50;99.90;;;;;;5031251;28;20508;-39
2022/12/10 07:54:17;;;;;;;19.03;12.10;;;1.40;99.90;;;;;;5031224;28;20523;-38
2022/12/10 07:56:43;;;;;;;18.43;13.70;;;1.30;99.90;;;;;;5031545;28;20968;-38
2022/12/10 07:59:09;;;;;;;19.70;13.70;;;1.40;99.90;;;;;;5032256;28;20427;-39
2022/12/10 08:01:34;;;;;;;17.80;12.77;;;1.40;99.90;;;;;;5051516;28;20186;-38
2022/12/10 08:04:00;;;;;;;21.17;15.07;;;1.30;99.90;;;;;;5051168;28;20795;-38
2022/12/10 08:06:28;;;;;;;22.93;13.83;;;1.30;99.90;;;;;;5050899;28;20766;-38
2022/12/10 08:08:54;;;;;;;21.23;14.60;;;1.40;99.90;;;;;;5049256;28;20236;-38
2022/12/10 08:11:21;;;;;;;24.33;16.40;;;1.40;99.90;;;;;;5051161;28;20431;-38
2022/12/10 08:13:47;;;;;;;21.20;14.63;;;1.10;99.90;;;;;;5049452;28;20395;-39
2022/12/10 08:16:18;;;;;;;24.50;15.80;;;1.50;99.90;;;;;;5051227;28;20469;-39
2022/12/10 08:18:44;;;;;;;25.37;16.37;;;1.40;99.90;;;;;;5049066;28;20430;-38
2022/12/10 08:21:15;;;;;;;23.97;16.77;;;1.40;99.90;;;;;;5051056;28;20478;-38
2022/12/10 08:23:42;;;;;;;23.07;15.27;;;1.50;99.90;;;;;;5050558;28;20489;-39
2022/12/10 08:26:10;;;;;;;27.50;18.90;;;1.20;99.90;;;;;;5045837;28;20817;-39
2022/12/10 08:28:36;;;;;;;28.27;16.00;;;1.30;99.90;;;;;;5043162;28;20468;-38
2022/12/10 08:31:04;;;;;;;23.53;16.37;;;1.40;99.90;;;;;;5047740;28;20456;-38
2022/12/10 08:33:30;;;;;;;30.17;19.57;;;1.40;99.90;;;;;;5049393;28;20416;-38
2022/12/10 08:35:59;;;;;;;30.23;19.20;;;1.50;99.90;;;;;;5050807;28;20443;-39
2022/12/10 08:38:25;;;;;;;30.17;21.10;;;1.70;99.90;;;;;;5050243;28;20186;-38
2022/12/10 08:40:51;;;;;;;33.00;21.50;;;1.60;99.90;;;;;;5049163;28;20843;-38
2022/12/10 08:43:17;;;;;;;38.90;23.80;;;1.70;99.90;;;;;;5050258;28;20420;-39
2022/12/10 08:45:42;;;;;;;35.93;22.57;;;1.60;99.90;;;;;;5049152;28;20243;-38
2022/12/10 08:48:08;;;;;;;35.57;21.33;;;1.70;99.90;;;;;;5049108;28;20219;-38
2022/12/10 08:50:34;;;;;;;37.10;23.77;;;1.60;99.90;;;;;;5049476;28;20178;-38
2022/12/10 08:53:00;;;;;;;37.93;24.50;;;1.90;99.90;;;;;;5050419;28;20742;-38
2022/12/10 08:55:25;;;;;;;39.33;23.87;;;1.80;99.90;;;;;;5039426;28;20182;-38
2022/12/10 08:57:51;;;;;;;40.73;25.33;;;1.80;99.90;;;;;;5030624;28;21004;-39
2022/12/10 09:00:18;;;;;;;39.43;23.07;;;1.50;99.90;;;;;;5029886;28;20577;-38
2022/12/10 09:02:44;;;;;;;40.83;25.00;;;1.70;99.90;;;;;;5038847;28;20312;-38
2022/12/10 09:05:10;;;;;;;41.97;24.77;;;1.30;99.90;;;;;;5038475;28;20491;-38
2022/12/10 09:07:36;;;;;;;39.63;24.07;;;1.50;99.90;;;;;;5041479;28;20469;-39
2022/12/10 09:10:02;;;;;;;44.43;25.43;;;1.60;99.90;;;;;;5041442;28;20186;-39
2022/12/10 09:12:27;;;;;;;46.50;27.27;;;1.50;99.90;;;;;;5039960;28;20182;-38
2022/12/10 09:14:53;;;;;;;45.63;26.53;;;1.50;99.90;;;;;;5033586;28;20452;-38
2022/12/10 09:17:19;;;;;;;39.67;23.13;;;1.30;99.90;;;;;;5036342;28;20690;-39
2022/12/10 09:19:44;;;;;;;42.47;24.97;;;1.60;99.90;;;;;;5046443;28;20190;-38
2022/12/10 09:22:10;;;;;;;42.60;24.67;;;1.60;99.90;;;;;;5048273;28;20185;-38
2022/12/10 09:24:36;;;;;;;38.50;21.97;;;1.50;99.90;;;;;;5048894;28;20308;-38
2022/12/10 09:27:02;;;;;;;43.47;24.57;;;1.60;99.90;;;;;;5047461;28;20251;-39
2022/12/10 09:29:28;;;;;;;45.60;25.60;;;1.30;99.90;;;;;;5045151;28;20186;-38
2022/12/10 09:31:54;;;;;;;45.10;24.80;;;1.50;99.90;;;;;;5048481;28;20432;-38
2022/12/10 09:34:21;;;;;;;41.07;23.70;;;1.50;99.90;;;;;;5048296;28;20178;-38
2022/12/10 09:36:47;;;;;;;40.13;25.07;;;1.30;99.90;;;;;;5048781;28;20428;-38
2022/12/10 09:39:13;;;;;;;45.00;25.00;;;1.50;99.90;;;;;;5048231;28;20439;-38
2022/12/10 09:42:11;;;;;;;41.07;24.40;;;1.40;99.90;;;;;;5047430;28;20467;-39
2022/12/10 09:45:00;;;;;;;38.50;23.43;;;1.30;99.90;;;;;;5047026;28;20494;-39
2022/12/10 09:47:41;;;;;;;41.40;22.80;;;1.60;99.90;;;;;;5043350;28;20496;-38
2022/12/10 09:50:22;;;;;;;38.87;21.47;;;1.40;99.90;;;;;;5047086;28;20489;-38
2022/12/10 09:52:50;;;;;;;38.33;20.93;;;1.40;99.90;;;;;;5047762;28;20423;-38
2022/12/10 09:55:31;;;;;;;39.27;22.17;;;1.50;99.90;;;;;;5042731;28;20933;-38
2022/12/10 09:57:59;;;;;;;44.40;24.07;;;1.50;99.90;;;;;;5041657;28;20793;-39
2022/12/10 10:00:36;;;;;;;41.13;24.20;;;1.40;99.90;;;;;;5048875;28;20447;-38
2022/12/10 10:03:03;;;;;;;39.87;22.73;;;1.60;99.90;;;;;;5049410;28;20420;-38
2022/12/10 10:05:31;;;;;;;41.80;21.63;;;1.50;99.90;;;;;;5047943;28;20946;-38
2022/12/10 10:08:07;;;;;;;38.50;21.90;;;1.70;99.90;;;;;;5046739;28;20674;-39
2022/12/10 10:10:39;;;;;;;46.03;25.90;;;1.70;99.90;;;;;;5045813;28;20431;-38
2022/12/10 10:13:07;;;;;;;45.93;24.43;;;1.40;99.90;;;;;;5047473;28;20424;-38
2022/12/10 10:15:40;;;;;;;42.93;22.33;;;1.60;99.90;;;;;;5043081;28;20429;-38
2022/12/10 10:18:46;;;;;;;45.87;24.97;;;1.60;99.90;;;;;;5045650;28;20424;-39
2022/12/10 10:21:25;;;;;;;43.27;23.73;;;1.60;99.90;;;;;;5033912;28;21037;-38
2022/12/10 10:23:51;;;;;;;46.93;24.00;;;1.60;99.90;;;;;;5043683;28;20434;-39
2022/12/10 10:26:17;;;;;;;48.90;26.07;;;1.70;99.90;;;;;;5046252;28;20799;-39
2022/12/10 10:28:45;;;;;;;51.83;26.27;;;1.50;99.90;;;;;;5036114;28;20456;-38
2022/12/10 10:31:23;;;;;;;46.30;25.73;;;1.60;99.90;;;;;;5043057;28;20424;-38
2022/12/10 10:33:56;;;;;;;44.20;24.83;;;1.80;99.90;;;;;;5048414;28;20835;-39
2022/12/10 10:36:28;;;;;;;42.57;26.20;;;1.70;99.90;;;;;;5048156;28;20424;-39
2022/12/10 10:38:55;;;;;;;52.13;27.50;;;1.40;99.90;;;;;;5048084;28;20420;-39
2022/12/10 10:41:22;;;;;;;44.90;23.80;;;1.50;99.90;;;;;;5047976;28;20710;-38
2022/12/10 10:43:52;;;;;;;63.90;38.40;;;1.90;99.90;;;;;;5046759;28;20425;-38
2022/12/10 10:46:23;;;;;;;99.60;54.60;;;1.60;99.90;;;;;;5047914;28;20828;-39
2022/12/10 10:48:49;;;;;;;58.47;30.50;;;1.80;99.90;;;;;;5047625;28;20485;-38
2022/12/10 10:51:22;;;;;;;55.33;30.73;;;1.80;99.90;;;;;;5048127;28;20451;-37
2022/12/10 10:53:52;;;;;;;49.00;27.97;;;1.70;99.90;;;;;;5047961;28;20906;-38
2022/12/10 10:56:39;;;;;;;65.10;36.97;;;2.00;99.90;;;;;;5047765;28;20420;-37
2022/12/10 10:59:17;;;;;;;46.90;25.20;;;2.00;99.90;;;;;;5047628;28;20428;-37
2022/12/10 11:01:49;;;;;;;51.73;29.20;;;1.90;99.90;;;;;;5048648;28;20779;-37
2022/12/10 11:04:17;;;;;;;71.20;39.87;;;2.00;99.90;;;;;;5039416;28;20424;-37
2022/12/10 11:06:44;;;;;;;52.03;27.10;;;1.80;99.90;;;;;;5047025;28;20467;-37
2022/12/10 11:09:27;;;;;;;81.00;41.63;;;2.00;99.90;;;;;;5045647;28;20473;-37
2022/12/10 11:12:03;;;;;;;53.47;29.27;;;2.00;99.90;;;;;;5031767;28;20959;-37
2022/12/10 11:14:38;;;;;;;54.07;30.40;;;2.00;99.90;;;;;;5027081;28;20444;-36
2022/12/10 11:17:09;;;;;;;66.63;34.60;;;2.10;99.90;;;;;;5027970;28;20424;-37
2022/12/10 11:19:35;;;;;;;54.57;29.37;;;2.10;99.90;;;;;;5027143;28;20723;-37
2022/12/10 11:22:34;;;;;;;76.13;38.90;;;2.10;99.90;;;;;;5027720;28;20447;-36
2022/12/10 11:25:00;;;;;;;47.70;28.70;;;2.00;99.90;;;;;;5015214;28;20437;-37
2022/12/10 11:27:43;;;;;;;47.23;25.57;;;2.10;99.90;;;;;;5029217;28;20439;-37
2022/12/10 11:30:22;;;;;;;48.90;28.03;;;2.00;99.90;;;;;;5047105;28;20420;-37
2022/12/10 11:33:16;;;;;;;53.13;28.20;;;2.10;99.90;;;;;;5047519;28;20420;-37
2022/12/10 11:36:03;;;;;;;54.60;28.77;;;2.00;99.90;;;;;;5032903;28;20421;-36
2022/12/10 11:38:33;;;;;;;51.67;30.07;;;2.20;99.90;;;;;;5034934;28;20856;-36
2022/12/10 11:41:02;;;;;;;54.23;28.87;;;2.10;99.90;;;;;;5044543;28;20455;-37
2022/12/10 11:43:45;;;;;;;56.30;29.63;;;1.90;99.90;;;;;;5047115;28;20448;-37
2022/12/10 11:46:19;;;;;;;48.63;27.20;;;2.00;99.90;;;;;;5047163;28;20426;-37
2022/12/10 11:49:38;;;;;;;53.83;28.97;;;2.20;99.90;;;;;;5047216;28;20496;-37
2022/12/10 11:52:13;;;;;;;47.53;27.37;;;2.10;99.90;;;;;;5035432;28;20443;-37
2022/12/10 11:54:47;;;;;;;52.57;28.87;;;2.20;99.90;;;;;;5044958;28;20481;-37
2022/12/10 11:57:37;;;;;;;49.37;28.67;;;2.00;99.90;;;;;;5047929;28;20781;-36
2022/12/10 12:00:16;;;;;;;58.13;30.80;;;2.30;99.90;;;;;;5047350;28;20766;-37
2022/12/10 12:02:56;;;;;;;48.13;28.67;;;2.00;99.90;;;;;;5046555;28;20440;-36
2022/12/10 12:05:28;;;;;;;47.47;26.87;;;2.10;99.90;;;;;;5046178;28;20485;-37
2022/12/10 12:08:17;;;;;;;55.20;28.80;;;2.20;99.90;;;;;;5045846;28;20583;-36
2022/12/10 12:10:56;;;;;;;51.73;28.67;;;2.20;99.90;;;;;;5046748;28;20419;-37
2022/12/10 12:13:43;;;;;;;49.77;27.83;;;2.30;99.90;;;;;;5046592;28;20511;-37
2022/12/10 12:16:25;;;;;;;54.03;29.70;;;2.20;99.90;;;;;;5047143;28;20506;-37
2022/12/10 12:19:29;;;;;;;54.13;30.63;;;2.20;99.90;;;;;;5045192;28;20430;-37
2022/12/10 12:21:56;;;;;;;50.60;28.83;;;2.10;99.90;;;;;;5024325;28;20959;-37
2022/12/10 12:24:32;;;;;;;58.83;30.20;;;2.20;99.90;;;;;;5037095;28;20927;-37
2022/12/10 12:27:10;;;;;;;54.60;30.30;;;2.10;99.90;;;;;;5049740;28;20498;-37
2022/12/10 12:30:00;;;;;;;50.40;29.30;;;2.30;99.90;;;;;;5048768;28;20490;-37
2022/12/10 12:32:35;;;;;;;51.90;27.30;;;2.10;99.90;;;;;;5050494;28;20958;-36
2022/12/10 12:35:21;;;;;;;51.20;28.40;;;2.30;99.90;;;;;;5050308;28;20416;-37
2022/12/10 12:37:56;;;;;;;49.33;27.43;;;2.30;99.90;;;;;;5050614;28;20455;-37
2022/12/10 12:40:39;;;;;;;48.57;28.97;;;2.30;99.90;;;;;;5050024;28;20511;-37
2022/12/10 12:43:19;;;;;;;54.40;29.93;;;2.10;99.90;;;;;;5050146;28;20451;-37
2022/12/10 12:45:54;;;;;;;51.70;26.90;;;2.20;99.90;;;;;;5050468;28;20439;-37
2022/12/10 12:48:37;;;;;;;50.37;28.20;;;2.10;99.90;;;;;;5044198;28;20860;-37
2022/12/10 12:51:18;;;;;;;46.80;26.30;;;2.40;99.90;;;;;;5044558;28;20817;-36
2022/12/10 12:53:43;;;;;;;48.83;25.97;;;2.10;99.90;;;;;;5044425;28;20434;-36
2022/12/10 12:56:31;;;;;;;44.23;26.33;;;2.40;99.90;;;;;;5049651;28;20432;-37
2022/12/10 12:59:06;;;;;;;48.47;26.93;;;2.10;99.90;;;;;;5030574;28;20210;-37
2022/12/10 13:01:51;;;;;;;52.13;27.93;;;2.20;99.90;;;;;;5030529;28;20772;-36
2022/12/10 13:04:17;;;;;;;77.03;40.97;;;2.40;99.90;;;;;;5030256;28;20496;-36
2022/12/10 13:07:09;;;;;;;61.43;32.17;;;2.40;99.90;;;;;;5046117;28;21002;-36